Calendrier et résultats N1

DateÉvènementTemps/RésultatsLieu
2016-09-24 20:30:0424 septembre 2016 RHC Lyon vs AL Plonéour Lanvern3 - 3Lyon 69009
2016-10-01 20:30:001 octobre 2016 Poiré Roller vs RHC Lyon5 - 3
2016-10-08 20:30:008 octobre 2016 HC Dinan Quévert vs RHC Lyon10 - 2
2016-10-15 20:30:0015 octobre 2016 RHC Lyon vs US Coutras RH4 - 7Lyon 69009
2016-10-22 20:30:0022 octobre 2016 La Vendéenne vs RHC Lyon9 - 0
2016-11-12 20:30:0012 novembre 2016 RHC Lyon vs Nantes ARH2 - 5Lyon 69009
2016-11-19 20:30:0019 novembre 2016 SCRA Saint-Omer vs RHC Lyon10 - 4
2016-12-03 20:30:003 décembre 2016 RHC Lyon vs CO Pacéen RH8 - 4Lyon 69009
2017-01-07 20:30:007 janvier 2017 SPRS Ploufragan vs RHC Lyon7 - 0
2017-01-21 20:30:0021 janvier 2017 RHC Lyon vs CS Noisy le Grand RS6 - 4Lyon 69009
2017-01-28 20:30:0028 janvier 2017 SA Mérignac vs RHC Lyon10 - 6
2017-02-11 20:30:0011 février 2017 AL Plonéour Lanvern vs RHC Lyon5 - 4
2017-02-25 20:30:0025 février 2017 RHC Lyon vs Poiré Roller6 - 3Lyon 69009
2017-03-18 20:30:0018 mars 2017 RHC Lyon vs HC Dinan Quévert2 - 3Lyon 69009
2017-04-01 20:30:001 avril 2017 US Coutras RH vs RHC Lyon7 - 1
2017-04-08 20:30:008 avril 2017 RHC Lyon vs La Vendéenne3 - 7Lyon 69009
2017-04-29 20:30:0029 avril 2017 Nantes ARH vs RHC Lyon 20:30:0020 h 30 min
2017-05-06 20:30:006 mai 2017 RHC Lyon vs SCRA Saint-Omer 20:30:0020 h 30 minLyon 69009
2017-05-20 20:30:0020 mai 2017 CO Pacéen RH vs RHC Lyon 20:30:0020 h 30 min
2017-05-27 20:30:0027 mai 2017 RHC Lyon vs SPRS Ploufragan 20:30:0020 h 30 minLyon 69009
2017-06-03 20:30:003 juin 2017 CS Noisy le Grand RS vs RHC Lyon 20:30:0020 h 30 min
2017-06-10 20:30:0010 juin 2017 RHC Lyon vs SA Mérignac 20:30:0020 h 30 minLyon 69009